createdAt,value
2022-10-09T00:11:34.148Z,1024.34
2022-10-09T00:41:34.146Z,1024.36
2022-10-09T01:11:34.147Z,1024.22
2022-10-09T01:41:34.146Z,1024.12
2022-10-09T02:11:34.144Z,1023.9
2022-10-09T02:41:34.191Z,1023.76
2022-10-09T03:11:34.158Z,1023.62
2022-10-09T03:41:34.154Z,1023.9
2022-10-09T04:11:34.152Z,1023.85
2022-10-09T04:41:37.979Z,1023.79
2022-10-09T05:11:34.156Z,1023.78
2022-10-09T05:41:34.169Z,1023.89
2022-10-09T06:11:34.180Z,1024.05
2022-10-09T06:41:34.185Z,1024.04
2022-10-09T07:11:34.192Z,1024.1
2022-10-09T07:41:34.185Z,1024.06
2022-10-09T08:11:34.207Z,1024.01
2022-10-09T08:41:34.196Z,1023.84
2022-10-09T09:11:34.212Z,1023.63
2022-10-09T09:41:34.211Z,1023.41
2022-10-09T10:11:34.214Z,1023.23
2022-10-09T10:41:34.207Z,1022.96
2022-10-09T11:11:34.219Z,1022.52
2022-10-09T11:41:34.217Z,1022.07
2022-10-09T12:11:34.211Z,1021.63
2022-10-09T12:41:34.231Z,1021.21
2022-10-09T13:11:34.230Z,1020.76
2022-10-09T13:41:34.235Z,1020.4
2022-10-09T14:11:34.248Z,1020.08
2022-10-09T14:41:37.605Z,1019.84
2022-10-09T15:11:34.262Z,1019.6
2022-10-09T15:41:34.275Z,1019.39
2022-10-09T16:11:34.288Z,1019.22
2022-10-09T16:41:38.305Z,1019.14
2022-10-09T17:11:34.289Z,1019.21
2022-10-09T17:41:34.293Z,1019.05
2022-10-09T18:11:34.303Z,1019.06
2022-10-09T18:41:34.304Z,1018.75
2022-10-09T19:11:34.309Z,1018.42
2022-10-09T19:41:34.308Z,1018.34
2022-10-09T20:11:34.314Z,1018.08
2022-10-09T20:41:34.312Z,1017.95
2022-10-09T21:11:34.311Z,1017.65
2022-10-09T21:41:34.314Z,1017.45
2022-10-09T22:11:34.326Z,1017.46
2022-10-09T22:41:34.317Z,1017.4
2022-10-09T23:11:34.333Z,1017.13
2022-10-09T23:41:34.349Z,1017.27
